Time;durP1;ratioP1;P1;durP2;ratioP2;P2;SDS_P1;SDS_P2;PMS_P1;PMS_P2;Temp;Humidity;BMP_temperature;BMP_pressure;BME280_temperature;BME280_humidity;BME280_pressure;Samples;Min_cycle;Max_cycle;Signal;HPM_P1;HPM_P2
2023/03/10 00:01:47;;;;;;;51.33;19.55;;;2.90;99.90;;;;;;4848254;29;20042;-70
2023/03/10 00:04:14;;;;;;;50.85;19.75;;;2.80;99.90;;;;;;4848084;29;20061;-70
2023/03/10 00:06:40;;;;;;;56.22;20.70;;;2.80;99.90;;;;;;4846890;29;20431;-70
2023/03/10 00:09:07;;;;;;;54.55;21.25;;;2.90;99.90;;;;;;4848411;29;20045;-70
2023/03/10 00:11:32;;;;;;;52.53;20.67;;;2.90;99.90;;;;;;4847826;29;20097;-71
2023/03/10 00:13:58;;;;;;;59.50;20.98;;;2.90;99.90;;;;;;4846962;29;20125;-70
2023/03/10 00:16:28;;;;;;;60.63;23.00;;;2.90;99.90;;;;;;4846648;29;20125;-71
2023/03/10 00:18:55;;;;;;;43.60;18.45;;;3.00;99.90;;;;;;4847911;29;20042;-70
2023/03/10 00:21:27;;;;;;;43.95;18.30;;;3.00;99.90;;;;;;4877544;29;20066;-70
2023/03/10 00:23:53;;;;;;;59.17;21.55;;;3.00;99.90;;;;;;4846795;29;20341;-70
2023/03/10 00:26:20;;;;;;;50.85;20.15;;;3.10;99.90;;;;;;4847806;29;20060;-70
2023/03/10 00:28:46;;;;;;;51.70;20.75;;;2.80;99.90;;;;;;4847745;29;20086;-70
2023/03/10 00:31:15;;;;;;;50.58;20.98;;;2.80;99.90;;;;;;4861908;29;20428;-70
2023/03/10 00:33:41;;;;;;;44.78;19.50;;;2.80;99.90;;;;;;4846993;29;20133;-71
2023/03/10 00:36:11;;;;;;;53.40;20.73;;;2.80;99.90;;;;;;4847380;29;20322;-70
2023/03/10 00:38:39;;;;;;;43.28;17.95;;;2.80;99.90;;;;;;4847586;29;20042;-70
2023/03/10 00:41:10;;;;;;;46.85;19.52;;;2.70;99.90;;;;;;4847265;29;20046;-70
2023/03/10 00:43:36;;;;;;;52.95;20.30;;;2.80;99.90;;;;;;4846157;29;20429;-70
2023/03/10 00:46:03;;;;;;;54.50;22.13;;;2.80;99.90;;;;;;4847449;29;20045;-70
2023/03/10 00:48:30;;;;;;;43.92;18.25;;;2.80;99.90;;;;;;4846185;29;20056;-70
2023/03/10 00:50:56;;;;;;;55.30;20.98;;;2.80;99.90;;;;;;4847059;29;20117;-70
2023/03/10 00:53:22;;;;;;;50.33;21.08;;;2.90;99.90;;;;;;4846059;29;20455;-70
2023/03/10 00:55:58;;;;;;;44.97;19.45;;;3.00;99.90;;;;;;4846196;29;20046;-70
2023/03/10 00:58:23;;;;;;;;;;;2.90;99.90;;;;;;4846501;29;20056;-70
2023/03/10 01:00:49;;;;;;;57.50;22.40;;;2.90;99.90;;;;;;4847229;29;19920;-70
2023/03/10 01:03:15;;;;;;;63.95;24.02;;;2.90;99.90;;;;;;4845858;29;20050;-70
2023/03/10 01:05:40;;;;;;;56.67;22.13;;;2.80;99.90;;;;;;4846177;29;20046;-70
2023/03/10 01:08:06;;;;;;;56.50;22.55;;;2.80;99.90;;;;;;4831047;29;20045;-70
2023/03/10 01:10:32;;;;;;;58.63;23.60;;;2.80;99.90;;;;;;4830546;29;20046;-70
2023/03/10 01:12:57;;;;;;;53.25;21.77;;;2.80;99.90;;;;;;4846697;29;20042;-71
2023/03/10 01:15:23;;;;;;;55.45;23.08;;;2.90;99.90;;;;;;4846914;29;20073;-70
2023/03/10 01:17:49;;;;;;;50.95;21.58;;;2.90;99.90;;;;;;4846688;29;20105;-70
2023/03/10 01:20:15;;;;;;;50.45;21.48;;;2.90;99.90;;;;;;4846514;29;20428;-69
2023/03/10 01:22:41;;;;;;;48.70;20.58;;;2.90;99.90;;;;;;4865179;29;20109;-70
2023/03/10 01:25:13;;;;;;;43.17;20.17;;;3.00;99.90;;;;;;4848541;29;20436;-70
2023/03/10 01:27:39;;;;;;;51.05;21.05;;;2.90;99.90;;;;;;4864959;29;20117;-70
2023/03/10 01:30:05;;;;;;;46.22;20.15;;;2.80;99.90;;;;;;4865095;29;20417;-70
2023/03/10 01:32:31;;;;;;;41.88;18.25;;;2.90;99.90;;;;;;4864720;29;20347;-70
2023/03/10 01:34:57;;;;;;;41.03;17.48;;;3.00;99.90;;;;;;4848771;29;20046;-70
2023/03/10 01:37:23;;;;;;;45.95;20.25;;;3.10;99.90;;;;;;4864687;29;20093;-70
2023/03/10 01:39:49;;;;;;;37.25;17.33;;;3.10;99.90;;;;;;4848850;29;20057;-71
2023/03/10 01:42:14;;;;;;;39.65;17.90;;;3.10;99.90;;;;;;4833152;29;20050;-70
2023/03/10 01:44:40;;;;;;;43.88;19.67;;;3.10;99.90;;;;;;4848400;29;20121;-70
2023/03/10 01:47:06;;;;;;;32.75;15.90;;;3.10;99.90;;;;;;4833078;29;20056;-71
2023/03/10 01:49:43;;;;;;;33.25;17.15;;;3.20;99.90;;;;;;4848536;29;20041;-70
2023/03/10 01:52:15;;;;;;;41.45;17.58;;;3.00;99.90;;;;;;4864510;29;20081;-70
2023/03/10 01:55:10;;;;;;;33.63;15.18;;;3.10;99.90;;;;;;4864749;29;20053;-70
2023/03/10 01:57:47;;;;;;;32.88;15.20;;;3.10;99.90;;;;;;4862490;29;20057;-70
2023/03/10 02:00:15;;;;;;;31.02;14.00;;;3.20;99.90;;;;;;4848070;29;20049;-70
2023/03/10 02:02:55;;;;;;;28.75;13.23;;;3.00;99.90;;;;;;4864332;29;20057;-70
2023/03/10 02:05:21;;;;;;;27.25;12.70;;;3.10;99.90;;;;;;4864601;29;20045;-70
2023/03/10 02:07:47;;;;;;;27.05;13.13;;;3.00;99.90;;;;;;4864580;29;20357;-70
2023/03/10 02:10:14;;;;;;;24.67;11.63;;;3.20;99.90;;;;;;4864532;29;20049;-70
2023/03/10 02:12:42;;;;;;;29.90;13.43;;;3.10;99.90;;;;;;4864216;29;20073;-70
2023/03/10 02:15:08;;;;;;;27.98;13.25;;;3.20;99.90;;;;;;4847826;29;20046;-70
2023/03/10 02:17:35;;;;;;;26.77;12.75;;;3.30;99.90;;;;;;4864420;29;20163;-71
2023/03/10 02:20:16;;;;;;;24.20;12.25;;;3.30;99.90;;;;;;4831258;29;20049;-70
2023/03/10 02:22:42;;;;;;;25.40;12.60;;;3.20;99.90;;;;;;4857409;29;20061;-70
2023/03/10 02:25:13;;;;;;;29.00;13.75;;;3.30;99.90;;;;;;4864322;29;20098;-70
2023/03/10 02:27:39;;;;;;;29.92;13.07;;;3.20;99.90;;;;;;4847911;29;20432;-70
2023/03/10 02:30:35;;;;;;;25.08;12.63;;;3.20;99.90;;;;;;4847790;29;20447;-70
2023/03/10 02:33:05;;;;;;;28.90;13.80;;;3.10;99.90;;;;;;4864396;29;20068;-70
2023/03/10 02:35:31;;;;;;;27.65;12.48;;;3.20;99.90;;;;;;4847626;29;20052;-70
2023/03/10 02:37:57;;;;;;;28.35;13.20;;;3.30;99.90;;;;;;4864232;29;20045;-70
2023/03/10 02:40:30;;;;;;;29.38;12.68;;;3.30;99.90;;;;;;4847593;29;20060;-70
2023/03/10 02:43:01;;;;;;;26.83;13.35;;;3.20;99.90;;;;;;4864189;29;20056;-70
2023/03/10 02:45:30;;;;;;;28.92;12.48;;;3.20;99.90;;;;;;4864210;29;20093;-71
2023/03/10 02:47:56;;;;;;;25.77;12.15;;;3.20;99.90;;;;;;4863856;29;20424;-70
2023/03/10 02:50:23;;;;;;;29.02;12.70;;;3.30;99.90;;;;;;4863748;29;20056;-70
2023/03/10 02:53:15;;;;;;;25.88;12.32;;;3.30;99.90;;;;;;4848002;29;20065;-70
2023/03/10 02:55:41;;;;;;;33.78;14.10;;;3.30;99.90;;;;;;4865421;29;20052;-70
2023/03/10 02:58:07;;;;;;;33.38;14.68;;;3.20;99.90;;;;;;4851447;29;20045;-70
2023/03/10 03:00:37;;;;;;;30.35;13.73;;;3.20;99.90;;;;;;4821110;29;20378;-70
2023/03/10 03:03:03;;;;;;;32.58;13.88;;;3.30;99.90;;;;;;4850998;29;20090;-70
2023/03/10 03:05:29;;;;;;;27.25;12.93;;;3.30;99.90;;;;;;4867345;29;20432;-70
2023/03/10 03:07:55;;;;;;;29.67;12.85;;;3.30;99.90;;;;;;4867659;29;20053;-70
2023/03/10 03:10:21;;;;;;;32.05;14.40;;;3.40;99.90;;;;;;4881847;29;20077;-70
2023/03/10 03:12:49;;;;;;;30.27;13.95;;;3.20;99.90;;;;;;4867599;29;20080;-70
2023/03/10 03:15:15;;;;;;;35.17;14.77;;;3.20;99.90;;;;;;4867467;29;20049;-70
2023/03/10 03:17:41;;;;;;;35.45;14.55;;;3.30;99.90;;;;;;4851016;29;20053;-70
2023/03/10 03:20:13;;;;;;;34.85;13.80;;;3.40;99.90;;;;;;4850821;29;20463;-70
2023/03/10 03:22:41;;;;;;;33.00;14.15;;;3.30;99.90;;;;;;4847621;29;20064;-70
2023/03/10 03:25:07;;;;;;;34.78;14.63;;;3.20;99.90;;;;;;4848060;29;20042;-70
2023/03/10 03:27:34;;;;;;;33.40;14.55;;;3.20;99.90;;;;;;4848878;29;20078;-70
2023/03/10 03:30:00;;;;;;;30.65;14.00;;;3.10;99.90;;;;;;4848885;29;20042;-70
2023/03/10 03:32:26;;;;;;;36.55;15.35;;;3.20;99.90;;;;;;4876886;29;20123;-73
2023/03/10 03:34:52;;;;;;;35.40;14.65;;;3.30;99.90;;;;;;4884267;29;20052;-70
2023/03/10 03:37:17;;;;;;;35.78;15.32;;;3.40;99.90;;;;;;4869497;29;20487;-70
2023/03/10 03:39:43;;;;;;;33.58;15.80;;;3.40;99.90;;;;;;4884432;29;20435;-70
2023/03/10 03:42:09;;;;;;;37.70;17.00;;;3.40;99.90;;;;;;4885564;29;20067;-70
2023/03/10 03:44:34;;;;;;;47.17;18.73;;;3.40;99.90;;;;;;4885532;29;20046;-70
2023/03/10 03:47:00;;;;;;;39.95;17.92;;;3.50;99.90;;;;;;4884607;29;20044;-70
2023/03/10 03:49:26;;;;;;;47.00;19.98;;;3.50;99.90;;;;;;4869004;29;20388;-70
2023/03/10 03:51:52;;;;;;;51.10;20.55;;;3.50;99.90;;;;;;4885195;29;20037;-70
2023/03/10 03:54:18;;;;;;;49.97;20.17;;;3.50;99.90;;;;;;4885595;29;20056;-70
2023/03/10 03:56:44;;;;;;;40.83;18.27;;;3.40;99.90;;;;;;4884157;29;20045;-70
2023/03/10 03:59:09;;;;;;;45.90;19.65;;;3.40;99.90;;;;;;4885073;29;20045;-70
2023/03/10 04:01:35;;;;;;;41.13;19.60;;;3.40;99.90;;;;;;4883962;29;20076;-70
2023/03/10 04:04:01;;;;;;;49.67;20.02;;;3.40;99.90;;;;;;4884224;29;20056;-70
2023/03/10 04:06:26;;;;;;;51.30;19.90;;;3.50;99.90;;;;;;4868080;29;20308;-70
2023/03/10 04:08:52;;;;;;;42.67;18.35;;;3.50;99.90;;;;;;4884637;29;20048;-70
2023/03/10 04:11:18;;;;;;;55.35;21.52;;;3.50;99.90;;;;;;4885600;29;20083;-70
2023/03/10 04:13:43;;;;;;;51.45;20.45;;;3.60;99.90;;;;;;4884112;29;20041;-70
2023/03/10 04:16:09;;;;;;;46.97;20.80;;;3.60;99.90;;;;;;4885020;29;20072;-70
2023/03/10 04:18:35;;;;;;;47.70;20.00;;;3.70;99.90;;;;;;4884971;29;20037;-70
2023/03/10 04:21:01;;;;;;;42.65;19.50;;;3.50;99.90;;;;;;4884662;29;20356;-70
2023/03/10 04:23:26;;;;;;;45.08;18.77;;;3.40;99.90;;;;;;4902773;29;20048;-70
2023/03/10 04:25:52;;;;;;;47.80;20.35;;;3.40;99.90;;;;;;4886958;29;20135;-70
2023/03/10 04:28:18;;;;;;;44.95;18.52;;;3.50;99.90;;;;;;4887009;29;20037;-70
2023/03/10 04:30:45;;;;;;;50.15;20.52;;;3.40;99.90;;;;;;4887002;29;20438;-70
2023/03/10 04:33:12;;;;;;;39.95;17.20;;;3.30;99.90;;;;;;4886627;29;20458;-70
2023/03/10 04:35:42;;;;;;;51.28;19.60;;;3.30;99.90;;;;;;4903408;29;20044;-70
2023/03/10 04:38:08;;;;;;;48.67;19.40;;;3.30;99.90;;;;;;4903405;29;20049;-70
2023/03/10 04:40:34;;;;;;;53.72;20.45;;;3.40;99.90;;;;;;4886740;29;20099;-70
2023/03/10 04:43:00;;;;;;;49.92;20.10;;;3.40;99.90;;;;;;4902884;29;20426;-70
2023/03/10 04:45:26;;;;;;;46.15;18.35;;;3.60;99.90;;;;;;4886577;29;20044;-70
2023/03/10 04:47:51;;;;;;;47.25;19.20;;;3.60;99.90;;;;;;4903958;29;20040;-70
2023/03/10 04:50:17;;;;;;;45.58;19.10;;;3.50;99.90;;;;;;4902800;29;20043;-70
2023/03/10 04:52:44;;;;;;;43.17;19.00;;;3.70;99.90;;;;;;4902842;29;20122;-70
2023/03/10 04:55:11;;;;;;;46.90;19.15;;;3.50;99.90;;;;;;4903091;29;20108;-70
2023/03/10 04:57:36;;;;;;;57.20;21.45;;;3.50;99.90;;;;;;4902718;29;20040;-70
2023/03/10 05:00:06;;;;;;;56.30;21.77;;;3.60;99.90;;;;;;4902768;29;20491;-70
2023/03/10 05:02:33;;;;;;;56.63;21.48;;;3.40;99.90;;;;;;4902604;29;20044;-70
2023/03/10 05:05:00;;;;;;;49.40;20.63;;;3.40;99.90;;;;;;4902429;29;20415;-70
2023/03/10 05:07:27;;;;;;;53.05;22.20;;;3.40;99.90;;;;;;4885979;29;20055;-70
2023/03/10 05:09:53;;;;;;;56.50;21.88;;;3.30;99.90;;;;;;4902586;29;20048;-70
2023/03/10 05:12:19;;;;;;;68.22;23.25;;;3.30;99.90;;;;;;4886092;29;20040;-70
2023/03/10 05:14:45;;;;;;;56.47;21.92;;;3.30;99.90;;;;;;4886178;29;20040;-70
2023/03/10 05:17:11;;;;;;;59.97;21.90;;;3.40;99.90;;;;;;4886011;29;20072;-70
2023/03/10 05:19:37;;;;;;;87.28;24.73;;;3.30;99.90;;;;;;4902727;29;20364;-70
2023/03/10 05:22:05;;;;;;;84.28;24.67;;;3.50;99.90;;;;;;4883471;29;20107;-70
2023/03/10 05:24:30;;;;;;;64.93;24.30;;;3.50;99.90;;;;;;4885910;29;20051;-70
2023/03/10 05:26:56;;;;;;;55.60;23.35;;;3.50;99.90;;;;;;4886008;29;20045;-70
2023/03/10 05:29:22;;;;;;;72.65;25.95;;;3.40;99.90;;;;;;4870332;29;20048;-70
2023/03/10 05:31:48;;;;;;;71.70;24.55;;;3.40;99.90;;;;;;4902371;29;20037;-70
2023/03/10 05:34:14;;;;;;;84.03;26.95;;;3.40;99.90;;;;;;4885727;29;20127;-70
2023/03/10 05:36:40;;;;;;;62.53;24.98;;;3.40;99.90;;;;;;4902713;29;20055;-70
2023/03/10 05:39:08;;;;;;;70.75;26.65;;;3.40;99.90;;;;;;4902234;29;20051;-70
2023/03/10 05:41:35;;;;;;;88.65;28.83;;;3.40;99.90;;;;;;4870433;29;20044;-70
2023/03/10 05:44:01;;;;;;;73.88;27.35;;;3.50;99.90;;;;;;4901787;29;20547;-70
2023/03/10 05:46:27;;;;;;;79.28;29.08;;;3.50;99.90;;;;;;4870299;29;20051;-70
2023/03/10 05:48:53;;;;;;;113.82;29.95;;;3.50;99.90;;;;;;4885698;29;20379;-70
2023/03/10 05:51:18;;;;;;;105.20;30.73;;;3.60;99.90;;;;;;4884908;29;20127;-70
2023/03/10 05:53:45;;;;;;;86.65;29.25;;;3.50;99.90;;;;;;4869895;29;20176;-70
2023/03/10 05:56:14;;;;;;;102.65;28.95;;;3.20;99.90;;;;;;4901896;29;20055;-70
2023/03/10 05:58:40;;;;;;;95.82;28.35;;;3.20;99.90;;;;;;4874546;29;20436;-70
2023/03/10 06:01:07;;;;;;;118.00;31.77;;;3.10;99.90;;;;;;4833534;29;20053;-70
2023/03/10 06:03:33;;;;;;;98.40;28.00;;;3.10;99.90;;;;;;4864567;29;20050;-70
2023/03/10 06:05:59;;;;;;;84.57;27.15;;;3.10;99.90;;;;;;4848065;29;20451;-70
2023/03/10 06:08:29;;;;;;;70.90;25.23;;;3.00;99.90;;;;;;4864534;29;20041;-71
2023/03/10 06:10:55;;;;;;;87.80;26.40;;;3.00;99.90;;;;;;4864237;29;20420;-71
2023/03/10 06:13:21;;;;;;;72.20;25.02;;;3.10;99.90;;;;;;4878723;29;20435;-70
2023/03/10 06:15:52;;;;;;;78.55;25.30;;;3.00;99.90;;;;;;4863249;29;20045;-70
2023/03/10 06:18:19;;;;;;;77.47;25.23;;;3.00;99.90;;;;;;4833298;29;20042;-70
2023/03/10 06:20:46;;;;;;;70.50;24.25;;;3.00;99.90;;;;;;4863559;29;20050;-70
2023/03/10 06:23:13;;;;;;;78.18;24.00;;;2.80;99.90;;;;;;4864410;29;20136;-70
2023/03/10 06:25:39;;;;;;;60.40;22.27;;;2.80;99.90;;;;;;4864377;29;20116;-70
2023/03/10 06:28:05;;;;;;;55.67;20.25;;;2.80;99.90;;;;;;4864333;29;20124;-70
2023/03/10 06:30:31;;;;;;;60.40;21.13;;;2.90;99.90;;;;;;4863561;29;20072;-70
2023/03/10 06:32:59;;;;;;;48.13;20.00;;;2.90;99.90;;;;;;4832935;29;20049;-70
2023/03/10 06:35:25;;;;;;;58.47;21.27;;;2.90;99.90;;;;;;4864258;29;20055;-70
2023/03/10 06:37:51;;;;;;;55.38;21.20;;;2.80;99.90;;;;;;4864224;29;20108;-70
2023/03/10 06:40:17;;;;;;;57.45;19.60;;;2.80;99.90;;;;;;4847953;29;20082;-70
2023/03/10 06:42:43;;;;;;;52.65;19.23;;;2.60;99.90;;;;;;4864150;29;20365;-71
2023/03/10 06:45:12;;;;;;;54.15;18.27;;;2.50;99.90;;;;;;4847784;29;20341;-70
2023/03/10 06:47:38;;;;;;;51.08;18.88;;;2.60;99.90;;;;;;4863870;29;20040;-70
2023/03/10 06:50:04;;;;;;;46.10;16.92;;;2.60;99.90;;;;;;4864675;29;20037;-70
2023/03/10 06:52:33;;;;;;;60.40;20.83;;;2.60;99.90;;;;;;4878358;29;20131;-70
2023/03/10 06:54:59;;;;;;;45.55;18.48;;;2.80;99.90;;;;;;4864088;29;20055;-70
2023/03/10 06:57:25;;;;;;;50.13;18.08;;;2.80;99.90;;;;;;4864081;29;20049;-70
2023/03/10 06:59:50;;;;;;;62.33;21.98;;;2.80;99.90;;;;;;4864098;29;20118;-70
2023/03/10 07:02:18;;;;;;;57.72;20.00;;;2.90;99.90;;;;;;4832083;29;20049;-70
2023/03/10 07:04:44;;;;;;;56.88;21.90;;;2.90;99.90;;;;;;4863708;29;20042;-71
2023/03/10 07:07:12;;;;;;;62.05;22.00;;;2.80;99.90;;;;;;4864146;29;20394;-70
2023/03/10 07:09:37;;;;;;;58.75;22.10;;;2.80;99.90;;;;;;4847411;29;20102;-70
2023/03/10 07:12:03;;;;;;;61.33;22.55;;;2.80;99.90;;;;;;4817043;29;20050;-70
2023/03/10 07:14:29;;;;;;;60.30;22.00;;;2.80;99.90;;;;;;4863955;29;20052;-70
2023/03/10 07:16:55;;;;;;;52.20;20.75;;;2.80;99.90;;;;;;4863976;29;20052;-70
2023/03/10 07:19:21;;;;;;;64.43;22.33;;;3.00;99.90;;;;;;4863928;29;20384;-70
2023/03/10 07:21:47;;;;;;;57.80;20.45;;;3.10;99.90;;;;;;4863158;29;20454;-70
2023/03/10 07:24:12;;;;;;;60.95;23.27;;;2.90;99.90;;;;;;4863780;29;20133;-71
2023/03/10 07:26:38;;;;;;;60.80;22.90;;;3.00;99.90;;;;;;4847480;29;20041;-70
2023/03/10 07:29:04;;;;;;;63.53;21.92;;;3.00;99.90;;;;;;4863817;29;20112;-71
2023/03/10 07:31:30;;;;;;;54.33;20.42;;;2.90;99.90;;;;;;4847553;29;20058;-70
2023/03/10 07:33:55;;;;;;;51.33;20.63;;;2.80;99.90;;;;;;4863766;29;20041;-70
2023/03/10 07:36:22;;;;;;;51.67;19.70;;;2.90;99.90;;;;;;4863730;29;20050;-70
2023/03/10 07:38:48;;;;;;;61.20;21.83;;;2.90;99.90;;;;;;4847365;29;20105;-70
2023/03/10 07:41:16;;;;;;;65.03;23.23;;;3.10;99.90;;;;;;4847700;29;20053;-70
2023/03/10 07:43:42;;;;;;;55.15;21.80;;;3.20;99.90;;;;;;4866945;29;20042;-70
2023/03/10 07:46:11;;;;;;;53.85;20.38;;;3.10;99.90;;;;;;4834949;29;20420;-70
2023/03/10 07:48:36;;;;;;;59.53;22.33;;;3.00;99.90;;;;;;4866691;29;20124;-70
2023/03/10 07:51:02;;;;;;;57.88;20.60;;;3.00;99.90;;;;;;4866572;29;20128;-70
2023/03/10 07:53:28;;;;;;;58.17;20.42;;;3.00;99.90;;;;;;4866860;29;20088;-71
2023/03/10 07:55:55;;;;;;;51.42;20.33;;;3.00;99.90;;;;;;4866818;29;20046;-70
2023/03/10 07:58:21;;;;;;;68.65;23.83;;;3.20;99.90;;;;;;4866719;29;20045;-70
2023/03/10 08:00:54;;;;;;;62.38;23.50;;;3.30;99.90;;;;;;4866750;29;20049;-70
2023/03/10 08:03:19;;;;;;;58.42;22.45;;;3.30;99.90;;;;;;4866669;29;20128;-70
2023/03/10 08:05:46;;;;;;;59.00;23.27;;;3.30;99.90;;;;;;4866370;29;20120;-70
2023/03/10 08:08:11;;;;;;;63.00;22.60;;;3.30;99.90;;;;;;4866572;29;20105;-70
2023/03/10 08:10:37;;;;;;;53.55;21.17;;;3.10;99.90;;;;;;4866541;29;20038;-70
2023/03/10 08:13:03;;;;;;;58.22;22.80;;;3.20;99.90;;;;;;4866558;29;20037;-69
2023/03/10 08:15:29;;;;;;;53.78;20.85;;;3.10;99.90;;;;;;4850347;29;20049;-70
2023/03/10 08:17:54;;;;;;;75.85;25.05;;;3.20;99.90;;;;;;4850084;29;20377;-70
2023/03/10 08:20:20;;;;;;;59.42;22.27;;;3.20;99.90;;;;;;4866107;29;20049;-70
2023/03/10 08:22:46;;;;;;;65.20;23.75;;;3.10;99.90;;;;;;4847702;29;20096;-70
2023/03/10 08:25:11;;;;;;;57.42;21.90;;;3.10;99.90;;;;;;4866246;29;20104;-69
2023/03/10 08:27:38;;;;;;;66.55;24.23;;;3.10;99.90;;;;;;4866269;29;20068;-70
2023/03/10 08:30:04;;;;;;;57.95;23.83;;;3.10;99.90;;;;;;4866211;29;20090;-70
2023/03/10 08:32:30;;;;;;;58.65;22.40;;;3.10;99.90;;;;;;4865204;29;20137;-70
2023/03/10 08:34:56;;;;;;;58.85;22.35;;;3.20;99.90;;;;;;4866149;29;20121;-70
2023/03/10 08:37:21;;;;;;;51.35;21.33;;;3.20;99.90;;;;;;4866061;29;20052;-71
2023/03/10 08:39:48;;;;;;;66.97;24.30;;;3.20;99.90;;;;;;4849453;29;20041;-75
2023/03/10 08:42:15;;;;;;;63.72;22.95;;;3.30;99.90;;;;;;4865600;29;20451;-66
2023/03/10 08:44:40;;;;;;;63.97;23.67;;;3.40;99.90;;;;;;4865982;29;20039;-64
2023/03/10 08:47:06;;;;;;;64.63;23.88;;;3.50;99.90;;;;;;4865940;29;20033;-65
2023/03/10 08:49:32;;;;;;;62.90;23.08;;;3.50;99.90;;;;;;4865900;29;20046;-65
2023/03/10 08:51:59;;;;;;;65.15;24.08;;;3.40;99.90;;;;;;4848976;29;20051;-66
2023/03/10 08:54:25;;;;;;;67.00;24.70;;;3.30;99.90;;;;;;4865041;29;20061;-66
2023/03/10 08:56:51;;;;;;;68.20;25.73;;;3.40;99.90;;;;;;4865690;29;20049;-65
2023/03/10 08:59:18;;;;;;;54.90;22.50;;;3.40;99.90;;;;;;4865692;29;20074;-66
2023/03/10 09:01:44;;;;;;;51.15;20.48;;;3.20;99.90;;;;;;4865406;29;20471;-65
2023/03/10 09:04:10;;;;;;;71.25;25.80;;;3.30;99.90;;;;;;4865489;29;20045;-65
2023/03/10 09:06:37;;;;;;;65.78;24.38;;;3.40;99.90;;;;;;4865551;29;20041;-65
2023/03/10 09:09:04;;;;;;;60.67;23.65;;;3.40;99.90;;;;;;4865542;29;20089;-65
2023/03/10 09:11:33;;;;;;;59.35;23.48;;;3.30;99.90;;;;;;4865469;29;20042;-66
2023/03/10 09:14:00;;;;;;;54.72;22.35;;;3.20;99.90;;;;;;4865448;29;20048;-67
2023/03/10 09:16:27;;;;;;;61.47;23.42;;;3.30;99.90;;;;;;4865390;29;20128;-66
2023/03/10 09:18:57;;;;;;;70.85;25.00;;;3.30;99.90;;;;;;4865334;29;20037;-66
2023/03/10 09:21:24;;;;;;;56.42;22.98;;;3.40;99.90;;;;;;4864944;29;20054;-67
2023/03/10 09:23:51;;;;;;;60.67;22.60;;;3.30;99.90;;;;;;4864843;29;20141;-67
2023/03/10 09:26:21;;;;;;;58.72;23.00;;;3.20;99.90;;;;;;4865279;29;20053;-67
2023/03/10 09:28:48;;;;;;;46.22;19.85;;;3.30;99.90;;;;;;4865227;29;20037;-66
2023/03/10 09:31:35;;;;;;;60.75;23.50;;;3.30;99.90;;;;;;4865179;29;20063;-66
2023/03/10 09:34:01;;;;;;;47.58;19.42;;;3.50;99.90;;;;;;4848476;29;20060;-66
2023/03/10 09:36:28;;;;;;;52.58;21.40;;;3.50;99.90;;;;;;4865031;29;20093;-66
2023/03/10 09:38:55;;;;;;;46.25;19.88;;;3.50;99.90;;;;;;4848621;29;20053;-67
2023/03/10 09:41:28;;;;;;;52.28;20.60;;;3.60;99.90;;;;;;4864968;29;20082;-69
2023/03/10 09:44:22;;;;;;;50.53;20.60;;;3.50;99.90;;;;;;4864849;29;20136;-67
2023/03/10 09:47:08;;;;;;;51.65;19.42;;;3.70;99.90;;;;;;4864908;29;20365;-67
2023/03/10 09:49:56;;;;;;;52.07;21.23;;;3.40;99.90;;;;;;4827262;29;20049;-67
2023/03/10 09:52:39;;;;;;;60.67;21.63;;;3.40;99.90;;;;;;4864577;29;20444;-66
2023/03/10 09:55:19;;;;;;;59.88;21.77;;;3.30;99.90;;;;;;4848409;29;20372;-66
2023/03/10 09:57:51;;;;;;;62.42;23.27;;;3.20;99.90;;;;;;4848454;29;20048;-68
2023/03/10 10:00:32;;;;;;;49.45;19.70;;;3.30;99.90;;;;;;4864755;29;20046;-67
2023/03/10 10:03:17;;;;;;;46.15;19.75;;;3.20;99.90;;;;;;4864670;29;20369;-66
2023/03/10 10:05:43;;;;;;;54.55;21.05;;;3.20;99.90;;;;;;4864611;29;20051;-67
2023/03/10 10:08:37;;;;;;;57.17;22.35;;;3.40;99.90;;;;;;4864602;29;20042;-67
2023/03/10 10:11:04;;;;;;;54.63;21.02;;;3.40;99.90;;;;;;4864553;29;20045;-67
2023/03/10 10:13:34;;;;;;;61.97;22.73;;;3.30;99.90;;;;;;4864557;29;20050;-66
2023/03/10 10:16:26;;;;;;;52.25;21.27;;;3.40;99.90;;;;;;4864557;29;20045;-66
2023/03/10 10:19:25;;;;;;;43.03;18.77;;;3.20;99.90;;;;;;4864494;29;20355;-67
2023/03/10 10:22:02;;;;;;;46.90;20.00;;;3.20;99.90;;;;;;4823507;29;20136;-67
2023/03/10 10:24:28;;;;;;;44.78;18.17;;;3.30;99.90;;;;;;4864338;29;20053;-66
2023/03/10 10:26:54;;;;;;;47.90;18.50;;;3.20;99.90;;;;;;4864340;29;20042;-67
2023/03/10 10:29:37;;;;;;;49.22;19.08;;;3.20;99.90;;;;;;4864262;29;20050;-67
2023/03/10 10:32:14;;;;;;;43.55;18.05;;;3.40;99.90;;;;;;4864046;29;20442;-67
2023/03/10 10:34:42;;;;;;;46.83;19.25;;;3.40;99.90;;;;;;4847895;29;20332;-67
2023/03/10 10:37:29;;;;;;;49.13;19.05;;;3.40;99.90;;;;;;4864234;29;20049;-66
2023/03/10 10:39:57;;;;;;;43.60;17.98;;;3.50;99.90;;;;;;4864245;29;20129;-65
2023/03/10 10:42:25;;;;;;;52.45;20.67;;;3.40;99.90;;;;;;4863814;29;20439;-66
2023/03/10 10:44:57;;;;;;;44.35;18.08;;;3.50;99.90;;;;;;4864248;29;20112;-66
2023/03/10 10:47:30;;;;;;;46.33;19.67;;;3.30;99.90;;;;;;4864193;29;20100;-66
2023/03/10 10:50:29;;;;;;;42.60;16.70;;;3.20;99.90;;;;;;4863908;29;20037;-66
2023/03/10 10:53:23;;;;;;;46.35;18.75;;;3.20;99.90;;;;;;4833899;29;20068;-66
2023/03/10 10:56:04;;;;;;;50.63;19.95;;;3.30;99.90;;;;;;4863943;29;20049;-66
2023/03/10 10:58:39;;;;;;;43.80;18.20;;;3.30;99.90;;;;;;4863934;29;20049;-67
2023/03/10 11:01:11;;;;;;;56.75;21.88;;;3.10;99.90;;;;;;4847756;29;20395;-66
2023/03/10 11:03:46;;;;;;;45.72;18.27;;;3.10;99.90;;;;;;4863725;29;20102;-67
2023/03/10 11:06:26;;;;;;;42.33;17.33;;;3.10;99.90;;;;;;4864073;29;20094;-66
2023/03/10 11:09:07;;;;;;;40.10;17.38;;;3.10;99.90;;;;;;4857713;29;20041;-67
2023/03/10 11:11:52;;;;;;;42.42;18.02;;;3.20;99.90;;;;;;4878965;29;20392;-74
2023/03/10 11:15:01;;;;;;;43.50;18.65;;;3.40;99.90;;;;;;4878517;29;20053;-67
2023/03/10 11:17:37;;;;;;;51.65;20.13;;;3.30;99.90;;;;;;4825628;29;20073;-67
2023/03/10 11:20:26;;;;;;;39.45;17.13;;;3.50;99.90;;;;;;4861245;29;20057;-68
2023/03/10 11:23:27;;;;;;;48.83;19.10;;;3.50;99.90;;;;;;4867049;29;20053;-67
2023/03/10 11:26:19;;;;;;;50.38;19.70;;;3.60;99.90;;;;;;4867116;29;20397;-67
2023/03/10 11:29:20;;;;;;;48.65;18.73;;;3.60;99.90;;;;;;4867356;29;20381;-67
2023/03/10 11:32:07;;;;;;;42.53;18.30;;;3.60;99.90;;;;;;4810222;29;20182;-67
2023/03/10 11:34:41;;;;;;;36.97;16.60;;;3.50;99.90;;;;;;4863454;29;20058;-67
2023/03/10 11:37:21;;;;;;;46.58;20.08;;;3.30;99.90;;;;;;4867216;29;20097;-67
2023/03/10 11:40:15;;;;;;;42.28;17.92;;;3.40;99.90;;;;;;4866884;29;20436;-67
2023/03/10 11:43:07;;;;;;;46.92;18.73;;;3.50;99.90;;;;;;4867007;29;20049;-66
2023/03/10 11:45:51;;;;;;;50.20;19.77;;;3.60;99.90;;;;;;4867208;29;20050;-66
2023/03/10 11:48:41;;;;;;;39.50;16.70;;;3.50;99.90;;;;;;4850409;29;20045;-68
2023/03/10 11:51:27;;;;;;;48.28;18.42;;;3.50;99.90;;;;;;4866547;29;20046;-68
2023/03/10 11:53:56;;;;;;;48.58;19.90;;;3.50;99.90;;;;;;4866916;29;20053;-67
2023/03/10 11:56:23;;;;;;;42.95;19.42;;;3.60;99.90;;;;;;4866817;29;20041;-67
2023/03/10 11:58:57;;;;;;;38.78;17.65;;;3.60;99.90;;;;;;4866803;29;20052;-68
2023/03/10 12:01:31;;;;;;;50.78;20.70;;;3.60;99.90;;;;;;4866777;29;20132;-67
2023/03/10 12:04:05;;;;;;;57.25;20.77;;;3.60;99.90;;;;;;4866967;29;20068;-67
2023/03/10 12:06:37;;;;;;;51.72;19.83;;;3.60;99.90;;;;;;4866439;29;20477;-68
2023/03/10 12:09:05;;;;;;;41.08;17.45;;;3.50;99.90;;;;;;4866360;29;20052;-67
2023/03/10 12:11:34;;;;;;;49.25;20.23;;;3.50;99.90;;;;;;4866545;29;20137;-67
2023/03/10 12:14:00;;;;;;;47.05;19.25;;;3.40;99.90;;;;;;4866530;29;20049;-67
2023/03/10 12:16:37;;;;;;;47.85;20.10;;;3.40;99.90;;;;;;4866340;29;20041;-67
2023/03/10 12:19:03;;;;;;;;;;;3.40;99.90;;;;;;4866904;29;20436;-67
2023/03/10 12:21:31;;;;;;;47.92;18.45;;;3.30;99.90;;;;;;4865999;29;20330;-67
2023/03/10 12:24:02;;;;;;;52.03;19.60;;;3.30;99.90;;;;;;4863879;29;20444;-68
2023/03/10 12:26:37;;;;;;;47.83;19.00;;;3.30;99.90;;;;;;4866353;29;20046;-65
2023/03/10 12:29:20;;;;;;;43.78;18.05;;;3.30;99.90;;;;;;4865078;29;20389;-65
2023/03/10 12:31:53;;;;;;;48.63;19.55;;;3.20;99.90;;;;;;4866242;29;20054;-67
2023/03/10 12:34:23;;;;;;;47.53;18.67;;;3.30;99.90;;;;;;4865891;29;20049;-65
2023/03/10 12:37:01;;;;;;;46.63;19.17;;;3.20;99.90;;;;;;4866173;29;20080;-65
2023/03/10 12:39:36;;;;;;;56.03;19.20;;;3.30;99.90;;;;;;4866143;29;20045;-65
2023/03/10 12:42:22;;;;;;;44.30;17.52;;;3.40;99.90;;;;;;4866192;29;20045;-67
2023/03/10 12:44:56;;;;;;;44.70;18.10;;;3.40;99.90;;;;;;4873444;29;20052;-65
2023/03/10 12:47:43;;;;;;;41.50;18.05;;;3.40;99.90;;;;;;4884103;29;20450;-66
2023/03/10 12:50:23;;;;;;;45.28;18.98;;;3.40;99.90;;;;;;4866154;29;20129;-65
2023/03/10 12:53:20;;;;;;;44.28;18.45;;;3.50;99.90;;;;;;4865326;29;20041;-77